createdAt,value
2018-03-26T00:00:50.651Z,40.40
2018-03-26T00:03:18.918Z,40.13
2018-03-26T00:05:47.254Z,42.27
2018-03-26T00:08:15.543Z,45.37
2018-03-26T00:10:44.082Z,39.35
2018-03-26T00:13:12.684Z,44.37
2018-03-26T00:15:41.095Z,46.00
2018-03-26T00:18:10.229Z,44.37
2018-03-26T00:20:38.690Z,42.70
2018-03-26T00:23:06.995Z,39.17
2018-03-26T00:25:35.395Z,50.20
2018-03-26T00:28:04.083Z,44.47
2018-03-26T00:30:32.487Z,45.00
2018-03-26T00:33:00.910Z,44.57
2018-03-26T00:35:29.185Z,47.73
2018-03-26T00:37:57.739Z,47.13
2018-03-26T00:40:26.919Z,59.73
2018-03-26T00:42:55.974Z,59.30
2018-03-26T00:45:24.289Z,63.13
2018-03-26T00:47:53.355Z,66.50
2018-03-26T00:50:21.800Z,69.37
2018-03-26T00:52:50.140Z,59.03
2018-03-26T00:55:20.570Z,62.20
2018-03-26T00:57:48.972Z,50.20
2018-03-26T01:00:17.414Z,65.57
2018-03-26T01:02:45.992Z,69.70
2018-03-26T01:05:14.576Z,72.53
2018-03-26T01:07:42.998Z,69.18
2018-03-26T01:10:11.276Z,62.60
2018-03-26T01:12:39.579Z,78.62
2018-03-26T01:15:07.954Z,65.00
2018-03-26T01:17:36.274Z,65.73
2018-03-26T01:20:04.772Z,71.53
2018-03-26T01:22:33.982Z,74.93
2018-03-26T01:25:03.187Z,59.03
2018-03-26T01:27:31.699Z,70.70
2018-03-26T01:30:00.079Z,68.12
2018-03-26T01:32:28.330Z,79.47
2018-03-26T01:34:56.682Z,65.43
2018-03-26T01:37:25.771Z,71.37
2018-03-26T01:39:54.954Z,65.05
2018-03-26T01:42:23.255Z,72.17
2018-03-26T01:44:52.345Z,68.83
2018-03-26T01:47:21.598Z,73.63
2018-03-26T01:49:50.015Z,66.00
2018-03-26T01:52:18.329Z,72.13
2018-03-26T01:54:46.750Z,66.50
2018-03-26T01:57:15.202Z,77.43
2018-03-26T01:59:43.716Z,85.67
2018-03-26T02:02:12.980Z,90.47
2018-03-26T02:04:41.275Z,79.47
2018-03-26T02:07:09.537Z,79.50
2018-03-26T02:09:37.909Z,71.80
2018-03-26T02:12:06.192Z,82.20
2018-03-26T02:14:34.502Z,76.17
2018-03-26T02:17:02.847Z,76.87
2018-03-26T02:19:31.311Z,83.58
2018-03-26T02:21:59.911Z,65.60
2018-03-26T02:24:28.335Z,76.87
2018-03-26T02:26:56.702Z,65.90
2018-03-26T02:29:24.996Z,67.37
2018-03-26T02:31:54.019Z,59.83
2018-03-26T02:34:22.352Z,67.85
2018-03-26T02:36:50.638Z,55.73
2018-03-26T02:39:19.832Z,66.57
2018-03-26T02:41:48.152Z,63.00
2018-03-26T02:44:16.736Z,65.57
2018-03-26T02:46:45.336Z,62.58
2018-03-26T02:49:13.748Z,69.37
2018-03-26T02:51:43.180Z,57.60
2018-03-26T02:54:12.255Z,58.83
2018-03-26T02:56:40.547Z,50.33
2018-03-26T02:59:08.862Z,54.95
2018-03-26T03:01:37.396Z,47.30
2018-03-26T03:04:06.806Z,46.93
2018-03-26T03:06:35.288Z,56.47
2018-03-26T03:09:04.660Z,53.90
2018-03-26T03:11:33.030Z,53.55
2018-03-26T03:14:01.546Z,49.43
2018-03-26T03:16:30.137Z,58.47
2018-03-26T03:18:58.524Z,49.90
2018-03-26T03:21:26.806Z,54.43
2018-03-26T03:23:56.229Z,59.83
2018-03-26T03:26:24.929Z,46.93
2018-03-26T03:28:54.222Z,65.13
2018-03-26T03:31:22.518Z,51.60
2018-03-26T03:33:50.921Z,47.73
2018-03-26T03:36:20.092Z,49.57
2018-03-26T03:38:48.418Z,51.72
2018-03-26T03:41:16.755Z,50.90
2018-03-26T03:43:45.137Z,43.87
2018-03-26T03:46:13.675Z,46.20
2018-03-26T03:48:42.171Z,42.23
2018-03-26T03:51:10.497Z,48.57
2018-03-26T03:53:39.280Z,49.33
2018-03-26T03:56:08.475Z,45.63
2018-03-26T03:58:37.791Z,46.80
2018-03-26T04:01:06.301Z,49.03
2018-03-26T04:03:34.585Z,45.03
2018-03-26T04:06:02.853Z,48.40
2018-03-26T04:08:31.386Z,47.20
2018-03-26T04:11:00.480Z,52.87
2018-03-26T04:13:29.086Z,52.43
2018-03-26T04:15:57.386Z,56.95
2018-03-26T04:18:25.970Z,43.60
2018-03-26T04:20:54.341Z,54.63
2018-03-26T04:23:22.758Z,47.43
2018-03-26T04:25:51.145Z,46.33
2018-03-26T04:28:19.645Z,47.70
2018-03-26T04:30:48.895Z,45.25
2018-03-26T04:33:17.505Z,53.87
2018-03-26T04:35:45.826Z,55.77
2018-03-26T04:38:14.187Z,41.60
2018-03-26T04:40:43.385Z,42.13
2018-03-26T04:43:12.437Z,54.90
2018-03-26T04:45:40.747Z,54.80
2018-03-26T04:48:09.137Z,46.58
2018-03-26T04:50:38.283Z,58.50
2018-03-26T04:53:06.572Z,65.63
2018-03-26T04:55:34.910Z,57.50
2018-03-26T04:58:03.207Z,44.33
2018-03-26T05:00:31.958Z,55.85
2018-03-26T05:03:01.175Z,54.33
2018-03-26T05:05:29.716Z,50.90
2018-03-26T05:07:58.120Z,45.80
2018-03-26T05:10:27.217Z,46.50
2018-03-26T05:12:55.561Z,58.17
2018-03-26T05:15:25.432Z,49.55
2018-03-26T05:17:53.746Z,48.03
2018-03-26T05:20:22.155Z,56.83
2018-03-26T05:22:52.048Z,47.05
2018-03-26T05:25:20.366Z,51.33
2018-03-26T05:27:48.677Z,47.57
2018-03-26T05:30:16.962Z,52.42
2018-03-26T05:32:45.307Z,43.00
2018-03-26T05:35:13.741Z,51.05
2018-03-26T05:37:42.143Z,40.80
2018-03-26T05:40:10.446Z,43.57
2018-03-26T05:42:38.726Z,47.77
2018-03-26T05:45:07.243Z,56.15
2018-03-26T05:47:35.512Z,46.13
2018-03-26T05:50:04.676Z,53.77
2018-03-26T05:52:34.227Z,57.33
2018-03-26T05:55:02.571Z,56.97
2018-03-26T05:57:31.095Z,53.80
2018-03-26T06:00:00.138Z,64.23
2018-03-26T06:02:28.522Z,51.10
2018-03-26T06:04:57.101Z,53.60
2018-03-26T06:07:25.527Z,54.13
2018-03-26T06:09:54.693Z,58.70
2018-03-26T06:12:23.063Z,49.83
2018-03-26T06:14:51.400Z,52.57
2018-03-26T06:17:20.607Z,56.90
2018-03-26T06:19:48.856Z,45.40
2018-03-26T06:22:18.031Z,50.53
2018-03-26T06:24:46.452Z,53.15
2018-03-26T06:27:14.869Z,51.37
2018-03-26T06:29:43.445Z,59.27
2018-03-26T06:32:11.952Z,53.50
2018-03-26T06:34:40.375Z,53.87
2018-03-26T06:37:14.326Z,59.10
2018-03-26T06:39:42.785Z,53.27
2018-03-26T06:42:11.218Z,50.80
2018-03-26T06:44:39.751Z,55.23
2018-03-26T06:47:08.235Z,59.40
2018-03-26T06:49:36.671Z,56.13
2018-03-26T06:52:05.778Z,52.38
2018-03-26T06:54:34.082Z,48.95
2018-03-26T06:57:02.592Z,52.40
2018-03-26T06:59:31.163Z,59.63
2018-03-26T07:01:59.571Z,49.30
2018-03-26T07:04:27.878Z,51.10
2018-03-26T07:06:57.190Z,55.90
2018-03-26T07:09:25.891Z,59.87
2018-03-26T07:11:55.282Z,51.55
2018-03-26T07:14:23.722Z,41.17
2018-03-26T07:16:52.825Z,51.27
2018-03-26T07:19:21.954Z,50.13
2018-03-26T07:21:50.521Z,42.30
2018-03-26T07:24:18.825Z,51.05
2018-03-26T07:26:47.123Z,45.57
2018-03-26T07:29:15.443Z,34.97
2018-03-26T07:31:44.558Z,45.10
2018-03-26T07:34:13.032Z,44.57
2018-03-26T07:36:41.337Z,39.20
2018-03-26T07:39:10.956Z,44.73
2018-03-26T07:41:39.256Z,38.20
2018-03-26T07:44:08.484Z,34.90
2018-03-26T07:46:36.818Z,39.13
2018-03-26T07:49:05.664Z,43.77
2018-03-26T07:51:34.397Z,35.83
2018-03-26T07:54:02.724Z,35.77
2018-03-26T07:56:31.163Z,37.67
2018-03-26T07:58:59.464Z,25.63
2018-03-26T08:01:29.033Z,29.97
2018-03-26T08:03:57.407Z,28.70
2018-03-26T08:06:25.839Z,29.83
2018-03-26T08:08:54.184Z,25.63
2018-03-26T08:11:24.444Z,30.17
2018-03-26T08:13:53.218Z,28.77
2018-03-26T08:16:22.637Z,33.90
2018-03-26T08:18:50.989Z,32.08
2018-03-26T08:21:20.207Z,28.60
2018-03-26T08:23:48.735Z,26.70
2018-03-26T08:26:17.318Z,27.80
2018-03-26T08:28:45.836Z,30.30
2018-03-26T08:31:15.093Z,43.47
2018-03-26T08:33:43.413Z,54.30
2018-03-26T08:36:11.742Z,28.17
2018-03-26T08:38:40.208Z,27.20
2018-03-26T08:41:08.503Z,30.10
2018-03-26T08:43:38.194Z,38.93
2018-03-26T08:46:06.496Z,41.73
2018-03-26T08:48:34.818Z,43.03
2018-03-26T08:51:03.292Z,41.03
2018-03-26T08:53:32.586Z,34.37
2018-03-26T08:56:01.303Z,42.23
2018-03-26T08:58:29.925Z,34.93
2018-03-26T09:00:58.578Z,43.90
2018-03-26T09:03:26.962Z,45.43
2018-03-26T09:05:55.328Z,33.70
2018-03-26T09:08:23.666Z,28.30
2018-03-26T09:10:52.895Z,28.83
2018-03-26T09:13:21.202Z,24.90
2018-03-26T09:15:49.712Z,34.37
2018-03-26T09:18:18.324Z,32.97
2018-03-26T09:20:46.788Z,30.33
2018-03-26T09:23:16.100Z,31.50
2018-03-26T09:25:45.144Z,27.57
2018-03-26T09:28:13.467Z,23.63
2018-03-26T09:30:42.576Z,22.60
2018-03-26T09:33:10.981Z,23.83
2018-03-26T09:35:39.544Z,22.33
2018-03-26T09:38:08.181Z,20.48
2018-03-26T09:40:36.550Z,18.37
2018-03-26T09:43:05.692Z,21.07
2018-03-26T09:45:34.046Z,23.20
2018-03-26T09:48:03.177Z,18.17
2018-03-26T09:50:31.482Z,17.30
2018-03-26T09:52:59.845Z,16.27
2018-03-26T09:55:28.123Z,14.40
2018-03-26T09:57:56.478Z,15.40
2018-03-26T10:00:30.513Z,15.88
2018-03-26T10:02:58.864Z,18.20
2018-03-26T10:05:27.322Z,15.07
2018-03-26T10:07:56.434Z,17.03
2018-03-26T10:10:25.678Z,13.17
2018-03-26T10:12:54.348Z,13.43
2018-03-26T10:15:22.748Z,10.37
2018-03-26T10:17:51.102Z,13.07
2018-03-26T10:20:19.558Z,11.37
2018-03-26T10:22:48.200Z,15.30
2018-03-26T10:25:16.677Z,20.47
2018-03-26T10:27:45.958Z,13.57
2018-03-26T10:30:14.252Z,15.30
2018-03-26T10:32:42.607Z,16.05
2018-03-26T10:35:11.050Z,19.25
2018-03-26T10:37:40.352Z,14.10
2018-03-26T10:40:09.509Z,13.53
2018-03-26T10:42:38.112Z,16.10
2018-03-26T10:45:06.503Z,15.87
2018-03-26T10:47:35.704Z,10.97
2018-03-26T10:50:04.840Z,10.90
2018-03-26T10:52:33.144Z,9.70
2018-03-26T10:55:01.545Z,9.07
2018-03-26T10:57:30.678Z,10.77
2018-03-26T10:59:59.024Z,9.57
2018-03-26T11:02:28.254Z,6.43
2018-03-26T11:04:56.627Z,8.40
2018-03-26T11:07:25.105Z,6.03
2018-03-26T11:09:53.730Z,3.80
2018-03-26T11:12:22.307Z,7.67
2018-03-26T11:14:50.650Z,6.55
2018-03-26T11:17:19.077Z,6.82
2018-03-26T11:19:47.559Z,4.83
2018-03-26T11:22:17.570Z,5.87
2018-03-26T11:24:46.153Z,5.57
2018-03-26T11:27:14.514Z,4.23
2018-03-26T11:29:42.867Z,5.07
2018-03-26T11:32:11.204Z,6.23
2018-03-26T11:34:39.660Z,6.35
2018-03-26T11:37:08.282Z,6.50
2018-03-26T11:39:37.553Z,3.53
2018-03-26T11:42:06.110Z,7.30
2018-03-26T11:44:34.568Z,4.57
2018-03-26T11:47:03.133Z,5.85
2018-03-26T11:49:32.685Z,4.87
2018-03-26T11:52:01.023Z,5.43
2018-03-26T11:54:29.311Z,8.53
2018-03-26T11:56:57.793Z,5.43
2018-03-26T11:59:26.197Z,7.17
2018-03-26T12:01:54.839Z,5.97
2018-03-26T12:04:23.960Z,7.00
2018-03-26T12:06:52.426Z,4.33
2018-03-26T12:09:20.798Z,4.33
2018-03-26T12:11:49.337Z,4.63
2018-03-26T12:14:18.669Z,7.20
2018-03-26T12:16:47.043Z,4.80
2018-03-26T12:19:16.163Z,4.73
2018-03-26T12:21:44.691Z,4.93
2018-03-26T12:24:31.234Z,4.53
2018-03-26T12:27:00.489Z,7.77
2018-03-26T12:29:46.662Z,4.95
2018-03-26T12:32:14.979Z,7.13
2018-03-26T12:35:01.338Z,2.80
2018-03-26T12:37:30.024Z,6.10
2018-03-26T12:39:58.545Z,3.83
2018-03-26T12:42:27.950Z,5.20
2018-03-26T12:45:14.217Z,3.40
2018-03-26T12:47:42.534Z,2.80
2018-03-26T12:50:11.255Z,6.18
2018-03-26T12:52:50.317Z,3.00
2018-03-26T12:55:18.656Z,6.27
2018-03-26T12:58:04.979Z,4.00
2018-03-26T13:00:33.419Z,2.43
2018-03-26T13:03:01.841Z,4.60
2018-03-26T13:05:30.250Z,6.77
2018-03-26T13:07:58.567Z,3.67
2018-03-26T13:10:27.253Z,2.97
2018-03-26T13:12:56.655Z,6.80
2018-03-26T13:15:24.967Z,4.90
2018-03-26T13:17:53.309Z,3.27
2018-03-26T13:20:21.848Z,5.10
2018-03-26T13:22:50.249Z,2.95
2018-03-26T13:25:19.363Z,3.37
2018-03-26T13:27:47.719Z,3.43
2018-03-26T13:30:16.960Z,7.13
2018-03-26T13:32:45.509Z,5.20
2018-03-26T13:35:15.761Z,3.87
2018-03-26T13:37:44.121Z,5.20
2018-03-26T13:40:12.444Z,3.40
2018-03-26T13:42:40.803Z,3.13
2018-03-26T13:45:09.299Z,4.17
2018-03-26T13:47:37.650Z,2.73
2018-03-26T13:50:06.033Z,2.97
2018-03-26T13:52:35.599Z,2.63
2018-03-26T13:55:04.819Z,3.23
2018-03-26T13:57:33.140Z,2.67
2018-03-26T14:00:01.504Z,3.07
2018-03-26T14:02:30.046Z,3.63
2018-03-26T14:04:59.614Z,3.27
2018-03-26T14:07:28.037Z,3.10
2018-03-26T14:10:14.749Z,3.97
2018-03-26T14:13:00.948Z,3.80
2018-03-26T14:15:47.104Z,3.90
2018-03-26T14:18:15.516Z,3.53
2018-03-26T14:20:44.324Z,6.37
2018-03-26T14:23:12.650Z,4.43
2018-03-26T14:25:41.123Z,4.70
2018-03-26T14:28:11.417Z,4.73
2018-03-26T14:30:39.779Z,3.53
2018-03-26T14:33:08.259Z,5.07
2018-03-26T14:35:44.213Z,2.97
2018-03-26T14:38:12.716Z,2.73
2018-03-26T14:40:41.411Z,2.97
2018-03-26T14:43:10.010Z,3.60
2018-03-26T14:45:39.476Z,4.03
2018-03-26T14:48:07.957Z,2.90
2018-03-26T14:50:36.364Z,2.40
2018-03-26T14:53:04.746Z,4.80
2018-03-26T14:55:33.075Z,2.30
2018-03-26T14:58:01.499Z,1.93
2018-03-26T15:00:30.260Z,3.22
2018-03-26T15:02:58.663Z,3.83
2018-03-26T15:05:28.138Z,4.10
2018-03-26T15:07:56.692Z,2.60
2018-03-26T15:10:25.196Z,3.93
2018-03-26T15:12:53.655Z,2.60
2018-03-26T15:15:22.904Z,3.78
2018-03-26T15:17:51.245Z,2.30
2018-03-26T15:20:19.630Z,2.73
2018-03-26T15:22:48.001Z,2.72
2018-03-26T15:25:16.554Z,1.80
2018-03-26T15:27:45.707Z,3.55
2018-03-26T15:30:14.103Z,4.00
2018-03-26T15:32:42.545Z,6.43
2018-03-26T15:35:10.844Z,3.40
2018-03-26T15:37:40.704Z,2.97
2018-03-26T15:40:10.056Z,2.95
2018-03-26T15:42:38.414Z,3.60
2018-03-26T15:45:06.725Z,3.47
2018-03-26T15:47:35.043Z,4.00
2018-03-26T15:50:04.137Z,5.80
2018-03-26T15:52:33.378Z,4.93
2018-03-26T15:55:01.834Z,4.90
2018-03-26T15:57:30.176Z,3.30
2018-03-26T15:59:58.616Z,6.87
2018-03-26T16:02:32.378Z,5.23
2018-03-26T16:05:01.494Z,3.27
2018-03-26T16:07:29.906Z,6.00
2018-03-26T16:09:58.561Z,4.28
2018-03-26T16:12:27.001Z,3.27
2018-03-26T16:14:56.315Z,3.53
2018-03-26T16:17:26.611Z,4.67
2018-03-26T16:19:54.967Z,3.90
2018-03-26T16:22:23.806Z,4.70
2018-03-26T16:24:53.209Z,3.37
2018-03-26T16:27:21.618Z,3.37
2018-03-26T16:29:50.104Z,3.93
2018-03-26T16:32:18.453Z,4.67
2018-03-26T16:34:47.652Z,6.53
2018-03-26T16:37:17.196Z,4.07
2018-03-26T16:39:45.543Z,8.45
2018-03-26T16:42:26.364Z,6.13
2018-03-26T16:44:54.746Z,7.70
2018-03-26T16:47:23.777Z,5.03
2018-03-26T16:49:52.121Z,6.13
2018-03-26T16:52:20.569Z,6.57
2018-03-26T16:54:48.934Z,5.03
2018-03-26T16:57:17.323Z,5.50
2018-03-26T16:59:45.650Z,3.53
2018-03-26T17:02:14.216Z,8.10
2018-03-26T17:04:42.645Z,5.57
2018-03-26T17:07:11.076Z,5.27
2018-03-26T17:09:39.616Z,4.93
2018-03-26T17:12:08.256Z,3.97
2018-03-26T17:14:36.652Z,4.57
2018-03-26T17:17:05.791Z,4.13
2018-03-26T17:19:35.221Z,4.03
2018-03-26T17:22:03.645Z,6.27
2018-03-26T17:24:32.579Z,4.50
2018-03-26T17:27:01.001Z,3.83
2018-03-26T17:29:29.397Z,6.47
2018-03-26T17:31:57.897Z,4.00
2018-03-26T17:34:26.680Z,4.37
2018-03-26T17:36:56.432Z,4.33
2018-03-26T17:39:25.056Z,5.87
2018-03-26T17:41:53.446Z,3.05
2018-03-26T17:44:22.030Z,4.60
2018-03-26T17:46:50.753Z,6.85
2018-03-26T17:49:19.102Z,6.83
2018-03-26T17:51:48.586Z,6.87
2018-03-26T17:54:18.074Z,4.03
2018-03-26T17:56:46.556Z,3.73
2018-03-26T17:59:15.098Z,3.53
2018-03-26T18:01:44.420Z,2.83
2018-03-26T18:04:13.754Z,3.07
2018-03-26T18:06:42.303Z,4.40
2018-03-26T18:09:11.735Z,3.40
2018-03-26T18:11:40.107Z,3.33
2018-03-26T18:14:08.598Z,3.92
2018-03-26T18:16:37.156Z,4.67
2018-03-26T18:19:06.673Z,2.97
2018-03-26T18:21:35.251Z,3.53
2018-03-26T18:24:04.556Z,10.17
2018-03-26T18:26:33.170Z,6.33
2018-03-26T18:29:01.645Z,4.40
2018-03-26T18:31:30.023Z,4.47
2018-03-26T18:33:58.626Z,5.00
2018-03-26T18:36:27.111Z,6.67
2018-03-26T18:38:55.439Z,3.03
2018-03-26T18:41:24.041Z,3.85
2018-03-26T18:43:52.465Z,4.07
2018-03-26T18:46:21.108Z,4.87
2018-03-26T18:48:49.531Z,6.27
2018-03-26T18:51:17.956Z,4.83
2018-03-26T18:53:46.854Z,3.70
2018-03-26T18:56:15.214Z,4.43
2018-03-26T18:58:43.660Z,6.90
2018-03-26T19:01:12.134Z,5.93
2018-03-26T19:03:40.721Z,10.37
2018-03-26T19:06:10.674Z,3.17
2018-03-26T19:08:39.114Z,6.67
2018-03-26T19:11:07.508Z,45.03
2018-03-26T19:13:35.933Z,21.93
2018-03-26T19:16:04.614Z,7.00
2018-03-26T19:18:33.251Z,5.07
2018-03-26T19:21:01.673Z,4.25
2018-03-26T19:23:30.229Z,4.20
2018-03-26T19:25:59.757Z,4.78
2018-03-26T19:28:28.373Z,6.57
2018-03-26T19:30:56.830Z,3.87
2018-03-26T19:33:25.486Z,4.17
2018-03-26T19:35:53.861Z,5.57
2018-03-26T19:38:23.096Z,8.60
2018-03-26T19:40:51.457Z,4.37
2018-03-26T19:43:19.848Z,4.57
2018-03-26T19:45:48.530Z,5.85
2018-03-26T19:48:16.983Z,7.33
2018-03-26T19:50:46.272Z,6.20
2018-03-26T19:53:14.670Z,6.13
2018-03-26T19:55:43.848Z,7.47
2018-03-26T19:58:12.235Z,4.33
2018-03-26T20:00:40.709Z,7.97
2018-03-26T20:03:10.032Z,53.53
2018-03-26T20:05:38.592Z,75.67
2018-03-26T20:08:07.101Z,17.20
2018-03-26T20:10:35.421Z,6.67
2018-03-26T20:13:03.986Z,5.10
2018-03-26T20:15:32.572Z,9.03
2018-03-26T20:18:00.886Z,9.03
2018-03-26T20:20:29.736Z,8.40
2018-03-26T20:22:59.082Z,7.12
2018-03-26T20:25:27.502Z,7.05
2018-03-26T20:27:57.626Z,6.22
2018-03-26T20:30:26.041Z,9.30
2018-03-26T20:32:54.597Z,4.93
2018-03-26T20:35:22.964Z,4.87
2018-03-26T20:37:51.521Z,8.57
2018-03-26T20:40:20.815Z,7.83
2018-03-26T20:42:50.055Z,8.47
2018-03-26T20:45:18.377Z,6.57
2018-03-26T20:47:46.789Z,9.63
2018-03-26T20:50:15.143Z,9.43
2018-03-26T20:52:43.572Z,11.73
2018-03-26T20:55:12.099Z,8.73
2018-03-26T20:57:41.305Z,15.57
2018-03-26T21:00:10.731Z,11.83
2018-03-26T21:02:39.647Z,8.47
2018-03-26T21:05:08.112Z,7.50
2018-03-26T21:07:36.550Z,14.27
2018-03-26T21:10:04.875Z,7.47
2018-03-26T21:12:33.364Z,9.23
2018-03-26T21:17:37.512Z,7.93
2018-03-26T21:20:05.879Z,7.73
2018-03-26T21:22:34.578Z,8.00
2018-03-26T21:25:02.900Z,12.13
2018-03-26T21:27:32.107Z,8.90
2018-03-26T21:30:00.524Z,11.62
2018-03-26T21:32:29.018Z,6.60
2018-03-26T21:34:57.537Z,10.63
2018-03-26T21:37:27.937Z,11.03
2018-03-26T21:39:57.373Z,8.53
2018-03-26T21:42:25.786Z,9.30
2018-03-26T21:44:54.266Z,9.97
2018-03-26T21:47:22.966Z,10.27
2018-03-26T21:49:51.384Z,10.90
2018-03-26T21:52:20.735Z,8.43
2018-03-26T21:54:49.390Z,9.52
2018-03-26T21:57:18.030Z,11.83
2018-03-26T21:59:46.311Z,15.27
2018-03-26T22:02:14.676Z,69.57
2018-03-26T22:04:43.187Z,46.93
2018-03-26T22:07:11.698Z,17.97
2018-03-26T22:09:41.921Z,13.00
2018-03-26T22:12:10.346Z,9.87
2018-03-26T22:14:38.736Z,8.50
2018-03-26T22:17:07.148Z,11.83
2018-03-26T22:19:35.588Z,11.90
2018-03-26T22:22:04.163Z,13.10
2018-03-26T22:24:32.796Z,9.83
2018-03-26T22:27:01.083Z,12.77
2018-03-26T22:29:29.747Z,6.97
2018-03-26T22:31:59.018Z,8.35
2018-03-26T22:34:27.431Z,9.93
2018-03-26T22:36:56.557Z,11.45
2018-03-26T22:39:25.027Z,7.97
2018-03-26T22:41:55.211Z,9.67
2018-03-26T22:44:25.440Z,11.83
2018-03-26T22:46:53.991Z,12.03
2018-03-26T22:49:22.246Z,18.37
2018-03-26T22:51:50.641Z,16.73
2018-03-26T22:54:19.064Z,11.48
2018-03-26T22:56:47.360Z,9.33
2018-03-26T22:59:15.734Z,11.77
2018-03-26T23:01:44.088Z,12.30
2018-03-26T23:04:13.273Z,10.40
2018-03-26T23:06:41.554Z,10.05
2018-03-26T23:09:10.672Z,8.93
2018-03-26T23:11:40.848Z,17.30
2018-03-26T23:14:09.223Z,9.03
2018-03-26T23:16:37.518Z,10.83
2018-03-26T23:19:05.828Z,12.52
2018-03-26T23:21:34.303Z,11.35
2018-03-26T23:24:02.598Z,11.13
2018-03-26T23:26:31.161Z,12.93
2018-03-26T23:28:59.579Z,13.50
2018-03-26T23:31:27.918Z,12.77
2018-03-26T23:33:57.141Z,12.50
2018-03-26T23:36:25.535Z,11.45
2018-03-26T23:38:53.991Z,14.97
2018-03-26T23:41:23.732Z,10.48
2018-03-26T23:43:52.028Z,12.33
2018-03-26T23:46:21.141Z,11.63
2018-03-26T23:48:50.238Z,12.33
2018-03-26T23:51:19.364Z,12.70
2018-03-26T23:53:48.084Z,12.77
2018-03-26T23:56:16.366Z,14.77
2018-03-26T23:58:44.904Z,16.23
